sensor_id;sensor_type;location;lat;lon;timestamp;pressure;altitude;pressure_sealevel;temperature;humidity
25944;BME280;13742;49.306;8.636;2023-03-25T00:00:57;99814.84;;;10.60;95.67
25944;BME280;13742;49.306;8.636;2023-03-25T00:01:53;99809.17;;;10.59;95.71
25944;BME280;13742;49.306;8.636;2023-03-25T00:02:53;99809.33;;;10.59;95.48
25944;BME280;13742;49.306;8.636;2023-03-25T00:03:53;99816.18;;;10.58;95.43
25944;BME280;13742;49.306;8.636;2023-03-25T00:04:53;99815.89;;;10.56;95.78
25944;BME280;13742;49.306;8.636;2023-03-25T00:05:54;99816.08;;;10.55;96.23
25944;BME280;13742;49.306;8.636;2023-03-25T00:06:54;99819.18;;;10.56;96.04
25944;BME280;13742;49.306;8.636;2023-03-25T00:07:53;99821.60;;;10.55;96.48
25944;BME280;13742;49.306;8.636;2023-03-25T00:08:54;99820.33;;;10.52;95.31
25944;BME280;13742;49.306;8.636;2023-03-25T00:09:53;99818.72;;;10.51;95.08
25944;BME280;13742;49.306;8.636;2023-03-25T00:10:55;99826.75;;;10.51;95.00
25944;BME280;13742;49.306;8.636;2023-03-25T00:11:53;99821.58;;;10.47;95.02
25944;BME280;13742;49.306;8.636;2023-03-25T00:12:53;99824.42;;;10.46;95.26
25944;BME280;13742;49.306;8.636;2023-03-25T00:13:53;99823.92;;;10.42;95.12
25944;BME280;13742;49.306;8.636;2023-03-25T00:14:53;99827.18;;;10.43;95.83
25944;BME280;13742;49.306;8.636;2023-03-25T00:15:57;99827.33;;;10.42;95.52
25944;BME280;13742;49.306;8.636;2023-03-25T00:16:53;99828.70;;;10.42;95.47
25944;BME280;13742;49.306;8.636;2023-03-25T00:17:53;99837.08;;;10.43;95.75
25944;BME280;13742;49.306;8.636;2023-03-25T00:18:54;99833.00;;;10.42;95.54
25944;BME280;13742;49.306;8.636;2023-03-25T00:19:54;99834.05;;;10.42;94.86
25944;BME280;13742;49.306;8.636;2023-03-25T00:20:54;99835.97;;;10.42;94.80
25944;BME280;13742;49.306;8.636;2023-03-25T00:21:53;99830.44;;;10.40;94.54
25944;BME280;13742;49.306;8.636;2023-03-25T00:22:53;99835.83;;;10.40;94.38
25944;BME280;13742;49.306;8.636;2023-03-25T00:23:53;99832.45;;;10.39;94.08
25944;BME280;13742;49.306;8.636;2023-03-25T00:24:53;99828.33;;;10.39;94.10
25944;BME280;13742;49.306;8.636;2023-03-25T00:25:59;99827.56;;;10.39;93.78
25944;BME280;13742;49.306;8.636;2023-03-25T00:26:53;99829.70;;;10.39;93.73
25944;BME280;13742;49.306;8.636;2023-03-25T00:27:53;99829.25;;;10.38;94.00
25944;BME280;13742;49.306;8.636;2023-03-25T00:28:53;99833.67;;;10.36;93.78
25944;BME280;13742;49.306;8.636;2023-03-25T00:29:53;99831.73;;;10.32;93.18
25944;BME280;13742;49.306;8.636;2023-03-25T00:30:53;99833.50;;;10.33;93.16
25944;BME280;13742;49.306;8.636;2023-03-25T00:31:53;99833.44;;;10.33;93.58
25944;BME280;13742;49.306;8.636;2023-03-25T00:32:53;99837.17;;;10.32;93.38
25944;BME280;13742;49.306;8.636;2023-03-25T00:33:53;99839.58;;;10.30;93.64
25944;BME280;13742;49.306;8.636;2023-03-25T00:34:54;99834.42;;;10.28;93.08
25944;BME280;13742;49.306;8.636;2023-03-25T00:35:58;99833.44;;;10.28;93.28
25944;BME280;13742;49.306;8.636;2023-03-25T00:36:55;99833.02;;;10.29;93.54
25944;BME280;13742;49.306;8.636;2023-03-25T00:37:59;99831.31;;;10.26;92.87
25944;BME280;13742;49.306;8.636;2023-03-25T00:38:53;99831.16;;;10.28;93.12
25944;BME280;13742;49.306;8.636;2023-03-25T00:39:53;99828.75;;;10.25;92.69
25944;BME280;13742;49.306;8.636;2023-03-25T00:40:53;99825.42;;;10.22;92.50
25944;BME280;13742;49.306;8.636;2023-03-25T00:41:56;99828.20;;;10.24;92.90
25944;BME280;13742;49.306;8.636;2023-03-25T00:42:54;99823.69;;;10.25;92.80
25944;BME280;13742;49.306;8.636;2023-03-25T00:43:54;99820.78;;;10.24;93.04
25944;BME280;13742;49.306;8.636;2023-03-25T00:44:53;99816.67;;;10.26;92.76
25944;BME280;13742;49.306;8.636;2023-03-25T00:45:54;99819.47;;;10.26;92.56
25944;BME280;13742;49.306;8.636;2023-03-25T00:46:53;99818.64;;;10.26;92.43
25944;BME280;13742;49.306;8.636;2023-03-25T00:47:53;99818.20;;;10.26;92.81
25944;BME280;13742;49.306;8.636;2023-03-25T00:48:54;99816.06;;;10.25;92.65
25944;BME280;13742;49.306;8.636;2023-03-25T00:49:53;99814.91;;;10.23;91.76
25944;BME280;13742;49.306;8.636;2023-03-25T00:50:54;99819.38;;;10.24;91.94
25944;BME280;13742;49.306;8.636;2023-03-25T00:51:54;99815.84;;;10.23;91.91
25944;BME280;13742;49.306;8.636;2023-03-25T00:52:53;99819.88;;;10.24;91.50
25944;BME280;13742;49.306;8.636;2023-03-25T00:53:54;99821.06;;;10.22;90.91
25944;BME280;13742;49.306;8.636;2023-03-25T00:54:53;99818.68;;;10.20;90.29
25944;BME280;13742;49.306;8.636;2023-03-25T00:55:56;99819.65;;;10.20;90.29
25944;BME280;13742;49.306;8.636;2023-03-25T00:56:53;99816.50;;;10.19;90.42
25944;BME280;13742;49.306;8.636;2023-03-25T00:57:53;99816.99;;;10.19;90.60
25944;BME280;13742;49.306;8.636;2023-03-25T00:58:53;99818.33;;;10.20;91.17
25944;BME280;13742;49.306;8.636;2023-03-25T00:59:53;99814.09;;;10.20;91.63
25944;BME280;13742;49.306;8.636;2023-03-25T01:00:55;99818.28;;;10.17;90.76
25944;BME280;13742;49.306;8.636;2023-03-25T01:01:55;99809.71;;;10.14;90.46
25944;BME280;13742;49.306;8.636;2023-03-25T01:02:55;99817.20;;;10.15;90.85
25944;BME280;13742;49.306;8.636;2023-03-25T01:03:59;99812.34;;;10.14;90.65
25944;BME280;13742;49.306;8.636;2023-03-25T01:04:54;99808.61;;;10.14;90.68
25944;BME280;13742;49.306;8.636;2023-03-25T01:05:55;99806.09;;;10.15;90.47
25944;BME280;13742;49.306;8.636;2023-03-25T01:06:54;99801.03;;;10.15;90.64
25944;BME280;13742;49.306;8.636;2023-03-25T01:07:54;99803.41;;;10.16;90.85
25944;BME280;13742;49.306;8.636;2023-03-25T01:08:55;99801.41;;;10.18;91.47
25944;BME280;13742;49.306;8.636;2023-03-25T01:09:54;99799.94;;;10.18;91.77
25944;BME280;13742;49.306;8.636;2023-03-25T01:10:54;99803.12;;;10.18;91.02
25944;BME280;13742;49.306;8.636;2023-03-25T01:11:53;99805.52;;;10.20;90.97
25944;BME280;13742;49.306;8.636;2023-03-25T01:12:53;99803.41;;;10.19;90.90
25944;BME280;13742;49.306;8.636;2023-03-25T01:13:54;99799.55;;;10.20;90.78
25944;BME280;13742;49.306;8.636;2023-03-25T01:14:54;99796.91;;;10.18;90.09
25944;BME280;13742;49.306;8.636;2023-03-25T01:15:53;99789.38;;;10.18;90.39
25944;BME280;13742;49.306;8.636;2023-03-25T01:16:54;99792.34;;;10.18;90.09
25944;BME280;13742;49.306;8.636;2023-03-25T01:17:53;99788.23;;;10.16;90.03
25944;BME280;13742;49.306;8.636;2023-03-25T01:18:53;99787.20;;;10.16;90.31
25944;BME280;13742;49.306;8.636;2023-03-25T01:19:53;99788.73;;;10.16;90.38
25944;BME280;13742;49.306;8.636;2023-03-25T01:20:53;99787.20;;;10.13;89.95
25944;BME280;13742;49.306;8.636;2023-03-25T01:21:53;99785.61;;;10.16;90.27
25944;BME280;13742;49.306;8.636;2023-03-25T01:22:53;99783.64;;;10.17;90.60
25944;BME280;13742;49.306;8.636;2023-03-25T01:23:53;99782.80;;;10.16;90.37
25944;BME280;13742;49.306;8.636;2023-03-25T01:24:53;99781.63;;;10.18;90.42
25944;BME280;13742;49.306;8.636;2023-03-25T01:25:53;99786.63;;;10.18;89.94
25944;BME280;13742;49.306;8.636;2023-03-25T01:26:53;99789.65;;;10.18;89.59
25944;BME280;13742;49.306;8.636;2023-03-25T01:27:53;99792.56;;;10.18;89.47
25944;BME280;13742;49.306;8.636;2023-03-25T01:28:53;99794.67;;;10.19;89.69
25944;BME280;13742;49.306;8.636;2023-03-25T01:29:53;99797.36;;;10.19;89.96
25944;BME280;13742;49.306;8.636;2023-03-25T01:31:53;99794.94;;;10.15;89.30
25944;BME280;13742;49.306;8.636;2023-03-25T01:32:53;99798.80;;;10.16;89.26
25944;BME280;13742;49.306;8.636;2023-03-25T01:33:53;99797.71;;;10.10;88.03
25944;BME280;13742;49.306;8.636;2023-03-25T01:34:53;99793.02;;;10.09;88.05
25944;BME280;13742;49.306;8.636;2023-03-25T01:35:53;99800.33;;;10.12;88.21
25944;BME280;13742;49.306;8.636;2023-03-25T01:36:54;99798.17;;;10.11;86.96
25944;BME280;13742;49.306;8.636;2023-03-25T01:37:53;99800.77;;;10.09;87.14
25944;BME280;13742;49.306;8.636;2023-03-25T01:38:54;99797.69;;;10.12;87.56
25944;BME280;13742;49.306;8.636;2023-03-25T01:39:53;99797.20;;;10.12;87.54
25944;BME280;13742;49.306;8.636;2023-03-25T01:40:53;99796.95;;;10.11;87.42
25944;BME280;13742;49.306;8.636;2023-03-25T01:41:54;99793.58;;;10.13;87.72
25944;BME280;13742;49.306;8.636;2023-03-25T01:42:53;99795.55;;;10.12;87.48
25944;BME280;13742;49.306;8.636;2023-03-25T01:45:53;99796.38;;;10.12;87.74
25944;BME280;13742;49.306;8.636;2023-03-25T01:46:55;99793.61;;;10.11;87.66
25944;BME280;13742;49.306;8.636;2023-03-25T01:48:53;99799.23;;;10.12;87.30
25944;BME280;13742;49.306;8.636;2023-03-25T01:49:53;99798.83;;;10.14;86.98
25944;BME280;13742;49.306;8.636;2023-03-25T01:50:57;99793.91;;;10.13;87.65
25944;BME280;13742;49.306;8.636;2023-03-25T01:51:54;99796.08;;;10.11;87.76
25944;BME280;13742;49.306;8.636;2023-03-25T01:52:53;99795.39;;;10.09;87.89
25944;BME280;13742;49.306;8.636;2023-03-25T01:53:53;99795.48;;;10.08;87.83
25944;BME280;13742;49.306;8.636;2023-03-25T01:54:53;99805.22;;;10.08;87.73
25944;BME280;13742;49.306;8.636;2023-03-25T01:55:53;99806.84;;;10.10;88.65
25944;BME280;13742;49.306;8.636;2023-03-25T01:56:53;99818.85;;;10.05;88.49
25944;BME280;13742;49.306;8.636;2023-03-25T01:57:55;99820.80;;;10.03;89.43
25944;BME280;13742;49.306;8.636;2023-03-25T01:58:53;99830.27;;;9.99;89.80
25944;BME280;13742;49.306;8.636;2023-03-25T01:59:53;99830.70;;;9.94;90.19
25944;BME280;13742;49.306;8.636;2023-03-25T02:00:54;99839.33;;;9.90;90.44
25944;BME280;13742;49.306;8.636;2023-03-25T02:01:54;99832.63;;;9.90;89.26
25944;BME280;13742;49.306;8.636;2023-03-25T02:02:58;99834.21;;;9.87;89.88
25944;BME280;13742;49.306;8.636;2023-03-25T02:03:53;99841.25;;;9.88;90.53
25944;BME280;13742;49.306;8.636;2023-03-25T02:04:58;99830.13;;;9.83;90.34
25944;BME280;13742;49.306;8.636;2023-03-25T02:05:55;99842.02;;;9.78;89.94
25944;BME280;13742;49.306;8.636;2023-03-25T02:06:53;99834.16;;;9.75;89.56
25944;BME280;13742;49.306;8.636;2023-03-25T02:07:53;99818.05;;;9.69;88.79
25944;BME280;13742;49.306;8.636;2023-03-25T02:08:53;99818.84;;;9.64;88.82
25944;BME280;13742;49.306;8.636;2023-03-25T02:09:53;99814.34;;;9.53;87.90
25944;BME280;13742;49.306;8.636;2023-03-25T02:10:53;99806.51;;;9.51;88.73
25944;BME280;13742;49.306;8.636;2023-03-25T02:11:53;99808.19;;;9.53;89.28
25944;BME280;13742;49.306;8.636;2023-03-25T02:12:53;99809.97;;;9.54;89.40
25944;BME280;13742;49.306;8.636;2023-03-25T02:13:57;99808.02;;;9.52;89.34
25944;BME280;13742;49.306;8.636;2023-03-25T02:14:54;99807.38;;;9.43;88.38
25944;BME280;13742;49.306;8.636;2023-03-25T02:18:14;99791.69;;;9.35;88.11
25944;BME280;13742;49.306;8.636;2023-03-25T02:21:00;99791.77;;;9.39;89.02
25944;BME280;13742;49.306;8.636;2023-03-25T02:22:17;99790.56;;;9.31;87.92
25944;BME280;13742;49.306;8.636;2023-03-25T02:26:59;99797.23;;;9.30;87.73
25944;BME280;13742;49.306;8.636;2023-03-25T02:27:56;99796.41;;;9.30;88.07
25944;BME280;13742;49.306;8.636;2023-03-25T02:34:04;99804.44;;;9.30;87.03
25944;BME280;13742;49.306;8.636;2023-03-25T02:38:55;99813.85;;;9.31;85.57
25944;BME280;13742;49.306;8.636;2023-03-25T02:39:54;99819.03;;;9.32;85.59
25944;BME280;13742;49.306;8.636;2023-03-25T02:42:55;99830.36;;;9.30;85.36
25944;BME280;13742;49.306;8.636;2023-03-25T02:45:54;99835.08;;;9.30;85.57
25944;BME280;13742;49.306;8.636;2023-03-25T02:46:55;99833.30;;;9.31;85.78
25944;BME280;13742;49.306;8.636;2023-03-25T02:47:54;99833.13;;;9.32;86.08
25944;BME280;13742;49.306;8.636;2023-03-25T02:48:55;99833.45;;;9.32;85.90
25944;BME280;13742;49.306;8.636;2023-03-25T02:49:54;99835.13;;;9.32;85.40
25944;BME280;13742;49.306;8.636;2023-03-25T02:50:54;99833.56;;;9.31;85.23
25944;BME280;13742;49.306;8.636;2023-03-25T02:52:54;99838.07;;;9.31;85.86
25944;BME280;13742;49.306;8.636;2023-03-25T02:53:53;99829.46;;;9.29;85.78
25944;BME280;13742;49.306;8.636;2023-03-25T02:54:57;99832.84;;;9.25;85.49
25944;BME280;13742;49.306;8.636;2023-03-25T02:55:53;99831.38;;;9.24;85.35
25944;BME280;13742;49.306;8.636;2023-03-25T02:56:56;99829.06;;;9.24;85.46
25944;BME280;13742;49.306;8.636;2023-03-25T02:57:53;99834.30;;;9.24;85.97
25944;BME280;13742;49.306;8.636;2023-03-25T02:58:54;99830.50;;;9.23;86.42
25944;BME280;13742;49.306;8.636;2023-03-25T02:59:54;99826.77;;;9.24;86.51
25944;BME280;13742;49.306;8.636;2023-03-25T03:00:57;99824.26;;;9.24;86.30
25944;BME280;13742;49.306;8.636;2023-03-25T03:01:58;99828.83;;;9.25;86.43
25944;BME280;13742;49.306;8.636;2023-03-25T03:02:59;99820.98;;;9.25;86.52
25944;BME280;13742;49.306;8.636;2023-03-25T03:03:53;99822.47;;;9.25;86.69
25944;BME280;13742;49.306;8.636;2023-03-25T03:04:54;99822.58;;;9.25;86.51
25944;BME280;13742;49.306;8.636;2023-03-25T03:05:58;99824.44;;;9.26;86.84
25944;BME280;13742;49.306;8.636;2023-03-25T03:06:54;99823.40;;;9.25;86.77
25944;BME280;13742;49.306;8.636;2023-03-25T03:07:57;99822.99;;;9.24;86.57
25944;BME280;13742;49.306;8.636;2023-03-25T03:14:59;99823.77;;;9.17;88.19
25944;BME280;13742;49.306;8.636;2023-03-25T03:18:57;99826.91;;;9.15;88.11
25944;BME280;13742;49.306;8.636;2023-03-25T03:19:54;99820.25;;;9.16;88.43
25944;BME280;13742;49.306;8.636;2023-03-25T03:20:57;99821.59;;;9.15;88.43
25944;BME280;13742;49.306;8.636;2023-03-25T03:21:55;99825.25;;;9.17;87.77
25944;BME280;13742;49.306;8.636;2023-03-25T03:22:57;99820.88;;;9.12;87.99
25944;BME280;13742;49.306;8.636;2023-03-25T03:23:55;99819.66;;;9.12;87.97
25944;BME280;13742;49.306;8.636;2023-03-25T03:24:56;99813.64;;;9.13;87.86
25944;BME280;13742;49.306;8.636;2023-03-25T03:26:05;99815.71;;;9.15;87.57
25944;BME280;13742;49.306;8.636;2023-03-25T03:26:58;99815.42;;;9.14;87.57
25944;BME280;13742;49.306;8.636;2023-03-25T03:28:59;99820.63;;;9.11;87.92
25944;BME280;13742;49.306;8.636;2023-03-25T03:29:58;99822.13;;;9.07;87.96
25944;BME280;13742;49.306;8.636;2023-03-25T03:30:57;99824.48;;;9.06;87.67
25944;BME280;13742;49.306;8.636;2023-03-25T03:31:57;99823.77;;;9.06;87.86
25944;BME280;13742;49.306;8.636;2023-03-25T03:32:55;99825.35;;;9.06;88.39
25944;BME280;13742;49.306;8.636;2023-03-25T03:33:58;99824.14;;;9.06;88.29
25944;BME280;13742;49.306;8.636;2023-03-25T03:35:57;99823.38;;;9.03;88.58
25944;BME280;13742;49.306;8.636;2023-03-25T03:36:54;99827.88;;;8.99;88.58
25944;BME280;13742;49.306;8.636;2023-03-25T03:37:57;99827.06;;;9.01;88.96
25944;BME280;13742;49.306;8.636;2023-03-25T03:39:00;99829.31;;;9.01;88.84
25944;BME280;13742;49.306;8.636;2023-03-25T03:39:53;99832.27;;;9.01;88.30
25944;BME280;13742;49.306;8.636;2023-03-25T03:40:55;99834.20;;;9.00;87.86
25944;BME280;13742;49.306;8.636;2023-03-25T03:41:55;99837.05;;;9.01;87.71
25944;BME280;13742;49.306;8.636;2023-03-25T03:42:57;99840.09;;;9.02;87.90
25944;BME280;13742;49.306;8.636;2023-03-25T03:43:57;99843.11;;;9.02;87.95
25944;BME280;13742;49.306;8.636;2023-03-25T03:44:55;99841.00;;;9.01;88.02
25944;BME280;13742;49.306;8.636;2023-03-25T03:45:55;99847.72;;;9.02;88.02
25944;BME280;13742;49.306;8.636;2023-03-25T03:46:57;99850.06;;;9.01;87.87
25944;BME280;13742;49.306;8.636;2023-03-25T03:47:54;99847.67;;;9.00;87.88
25944;BME280;13742;49.306;8.636;2023-03-25T03:48:54;99844.63;;;9.01;87.91
25944;BME280;13742;49.306;8.636;2023-03-25T03:49:55;99843.64;;;9.01;87.44
25944;BME280;13742;49.306;8.636;2023-03-25T03:52:12;99845.04;;;9.00;87.76
25944;BME280;13742;49.306;8.636;2023-03-25T03:54:58;99842.55;;;8.99;87.68
25944;BME280;13742;49.306;8.636;2023-03-25T03:56:58;99844.17;;;8.99;87.85
25944;BME280;13742;49.306;8.636;2023-03-25T03:57:58;99841.83;;;9.01;87.77
25944;BME280;13742;49.306;8.636;2023-03-25T03:58:57;99841.09;;;9.00;87.98
25944;BME280;13742;49.306;8.636;2023-03-25T03:59:58;99846.91;;;9.00;87.95
25944;BME280;13742;49.306;8.636;2023-03-25T04:00:58;99846.36;;;9.00;88.28
25944;BME280;13742;49.306;8.636;2023-03-25T04:03:04;99841.13;;;8.99;88.09
25944;BME280;13742;49.306;8.636;2023-03-25T04:03:57;99843.76;;;9.00;88.12
25944;BME280;13742;49.306;8.636;2023-03-25T04:04:53;99844.09;;;8.99;87.90
25944;BME280;13742;49.306;8.636;2023-03-25T04:05:56;99846.41;;;8.98;88.10
25944;BME280;13742;49.306;8.636;2023-03-25T04:07:14;99851.40;;;8.97;88.11
25944;BME280;13742;49.306;8.636;2023-03-25T04:10:02;99846.17;;;8.99;88.68
25944;BME280;13742;49.306;8.636;2023-03-25T04:11:54;99839.52;;;9.01;88.43
25944;BME280;13742;49.306;8.636;2023-03-25T04:12:53;99842.81;;;9.01;87.95
25944;BME280;13742;49.306;8.636;2023-03-25T04:13:53;99838.35;;;9.03;87.90
25944;BME280;13742;49.306;8.636;2023-03-25T04:14:54;99836.47;;;9.02;88.18
25944;BME280;13742;49.306;8.636;2023-03-25T04:15:53;99831.40;;;9.01;87.95
25944;BME280;13742;49.306;8.636;2023-03-25T04:16:54;99835.56;;;9.01;87.58
25944;BME280;13742;49.306;8.636;2023-03-25T04:17:53;99836.49;;;8.98;87.62
25944;BME280;13742;49.306;8.636;2023-03-25T04:18:54;99831.63;;;8.99;87.85
25944;BME280;13742;49.306;8.636;2023-03-25T04:19:53;99828.92;;;9.01;87.82
25944;BME280;13742;49.306;8.636;2023-03-25T04:20:54;99834.82;;;9.02;88.19
25944;BME280;13742;49.306;8.636;2023-03-25T04:21:53;99833.41;;;9.00;88.37
25944;BME280;13742;49.306;8.636;2023-03-25T04:22:53;99832.39;;;9.01;87.68
25944;BME280;13742;49.306;8.636;2023-03-25T04:23:53;99837.88;;;9.01;87.79
25944;BME280;13742;49.306;8.636;2023-03-25T04:24:55;99836.26;;;9.00;87.61
25944;BME280;13742;49.306;8.636;2023-03-25T04:25:53;99833.61;;;9.02;87.60
25944;BME280;13742;49.306;8.636;2023-03-25T04:26:57;99839.50;;;9.03;87.84
25944;BME280;13742;49.306;8.636;2023-03-25T04:27:58;99837.56;;;9.02;87.68
25944;BME280;13742;49.306;8.636;2023-03-25T04:28:53;99839.05;;;9.02;87.77
25944;BME280;13742;49.306;8.636;2023-03-25T04:29:56;99838.32;;;9.04;87.71
25944;BME280;13742;49.306;8.636;2023-03-25T04:30:55;99831.44;;;9.03;87.80
25944;BME280;13742;49.306;8.636;2023-03-25T04:31:55;99827.95;;;9.00;87.73
25944;BME280;13742;49.306;8.636;2023-03-25T04:32:53;99828.70;;;8.99;87.97
25944;BME280;13742;49.306;8.636;2023-03-25T04:33:53;99828.12;;;8.99;88.14
25944;BME280;13742;49.306;8.636;2023-03-25T04:34:56;99825.92;;;8.99;87.44
25944;BME280;13742;49.306;8.636;2023-03-25T04:35:53;99827.04;;;9.00;87.61
25944;BME280;13742;49.306;8.636;2023-03-25T04:36:53;99830.72;;;9.00;88.29
25944;BME280;13742;49.306;8.636;2023-03-25T04:37:55;99828.48;;;9.01;88.03
25944;BME280;13742;49.306;8.636;2023-03-25T04:38:54;99828.92;;;9.01;87.95
25944;BME280;13742;49.306;8.636;2023-03-25T04:39:55;99831.84;;;9.01;88.22
25944;BME280;13742;49.306;8.636;2023-03-25T04:40:53;99828.30;;;9.00;88.00
25944;BME280;13742;49.306;8.636;2023-03-25T04:41:53;99834.06;;;9.00;87.43
25944;BME280;13742;49.306;8.636;2023-03-25T04:42:55;99834.22;;;9.02;87.56
25944;BME280;13742;49.306;8.636;2023-03-25T04:43:53;99829.19;;;9.03;87.43
25944;BME280;13742;49.306;8.636;2023-03-25T04:44:53;99836.63;;;9.02;86.70
25944;BME280;13742;49.306;8.636;2023-03-25T04:45:53;99835.94;;;9.03;86.06
25944;BME280;13742;49.306;8.636;2023-03-25T04:46:55;99828.50;;;9.04;85.95
25944;BME280;13742;49.306;8.636;2023-03-25T04:47:53;99831.68;;;9.04;85.70
25944;BME280;13742;49.306;8.636;2023-03-25T04:48:55;99831.01;;;9.06;85.86
25944;BME280;13742;49.306;8.636;2023-03-25T04:49:53;99829.11;;;9.07;85.51
25944;BME280;13742;49.306;8.636;2023-03-25T04:50:55;99818.64;;;9.08;85.54
25944;BME280;13742;49.306;8.636;2023-03-25T04:51:53;99826.33;;;9.08;85.16
25944;BME280;13742;49.306;8.636;2023-03-25T04:52:54;99820.98;;;9.09;85.07
25944;BME280;13742;49.306;8.636;2023-03-25T04:53:53;99820.33;;;9.07;85.08
25944;BME280;13742;49.306;8.636;2023-03-25T04:54:54;99827.53;;;9.08;84.98
25944;BME280;13742;49.306;8.636;2023-03-25T04:55:53;99826.55;;;9.08;85.28
25944;BME280;13742;49.306;8.636;2023-03-25T04:56:53;99829.13;;;9.08;85.03
25944;BME280;13742;49.306;8.636;2023-03-25T04:57:53;99830.07;;;9.06;85.04
25944;BME280;13742;49.306;8.636;2023-03-25T04:58:53;99826.70;;;9.05;84.96
25944;BME280;13742;49.306;8.636;2023-03-25T04:59:53;99824.92;;;9.04;84.46
25944;BME280;13742;49.306;8.636;2023-03-25T05:00:53;99833.89;;;9.05;83.94
25944;BME280;13742;49.306;8.636;2023-03-25T05:01:53;99824.45;;;9.05;84.21
25944;BME280;13742;49.306;8.636;2023-03-25T05:02:54;99825.53;;;9.04;84.29
25944;BME280;13742;49.306;8.636;2023-03-25T05:03:53;99825.70;;;9.04;84.85
25944;BME280;13742;49.306;8.636;2023-03-25T05:04:53;99827.92;;;9.03;84.36
25944;BME280;13742;49.306;8.636;2023-03-25T05:05:53;99828.90;;;9.05;83.79
25944;BME280;13742;49.306;8.636;2023-03-25T05:06:55;99832.57;;;9.02;83.28
25944;BME280;13742;49.306;8.636;2023-03-25T05:07:54;99825.18;;;9.03;83.96
25944;BME280;13742;49.306;8.636;2023-03-25T05:08:53;99833.14;;;9.03;83.60
25944;BME280;13742;49.306;8.636;2023-03-25T05:09:53;99832.63;;;9.02;83.79
25944;BME280;13742;49.306;8.636;2023-03-25T05:10:53;99833.23;;;9.02;83.96
25944;BME280;13742;49.306;8.636;2023-03-25T05:11:54;99827.48;;;9.03;84.22
25944;BME280;13742;49.306;8.636;2023-03-25T05:13:53;99831.38;;;9.03;84.07
25944;BME280;13742;49.306;8.636;2023-03-25T05:14:53;99833.17;;;9.02;84.16
25944;BME280;13742;49.306;8.636;2023-03-25T05:15:53;99830.38;;;9.02;83.96
25944;BME280;13742;49.306;8.636;2023-03-25T05:16:56;99837.94;;;9.04;83.96
25944;BME280;13742;49.306;8.636;2023-03-25T05:17:53;99828.31;;;9.03;83.99
25944;BME280;13742;49.306;8.636;2023-03-25T05:18:53;99837.25;;;9.03;83.88
25944;BME280;13742;49.306;8.636;2023-03-25T05:19:54;99835.08;;;9.01;84.15
25944;BME280;13742;49.306;8.636;2023-03-25T05:20:54;99837.36;;;9.00;84.23
25944;BME280;13742;49.306;8.636;2023-03-25T05:21:55;99845.34;;;8.96;84.26
25944;BME280;13742;49.306;8.636;2023-03-25T05:22:56;99843.24;;;8.98;84.23
25944;BME280;13742;49.306;8.636;2023-03-25T05:23:53;99837.77;;;8.97;84.07
25944;BME280;13742;49.306;8.636;2023-03-25T05:24:55;99845.02;;;8.97;84.45
25944;BME280;13742;49.306;8.636;2023-03-25T05:25:55;99848.33;;;8.97;85.39
25944;BME280;13742;49.306;8.636;2023-03-25T05:26:53;99849.48;;;8.97;85.82
25944;BME280;13742;49.306;8.636;2023-03-25T05:27:53;99849.78;;;8.96;86.12
25944;BME280;13742;49.306;8.636;2023-03-25T05:28:55;99850.66;;;8.96;85.93
25944;BME280;13742;49.306;8.636;2023-03-25T05:29:57;99857.45;;;8.95;85.77
25944;BME280;13742;49.306;8.636;2023-03-25T05:30:54;99854.06;;;8.93;85.99
25944;BME280;13742;49.306;8.636;2023-03-25T05:31:53;99849.56;;;8.94;85.43
25944;BME280;13742;49.306;8.636;2023-03-25T05:32:53;99862.89;;;8.94;85.31
25944;BME280;13742;49.306;8.636;2023-03-25T05:33:53;99870.30;;;8.90;85.86
25944;BME280;13742;49.306;8.636;2023-03-25T05:34:53;99867.73;;;8.89;86.48
25944;BME280;13742;49.306;8.636;2023-03-25T05:35:53;99863.59;;;8.86;86.75
25944;BME280;13742;49.306;8.636;2023-03-25T05:36:53;99874.91;;;8.85;86.88
25944;BME280;13742;49.306;8.636;2023-03-25T05:37:54;99874.33;;;8.85;87.03
25944;BME280;13742;49.306;8.636;2023-03-25T05:38:53;99876.96;;;8.84;87.21
25944;BME280;13742;49.306;8.636;2023-03-25T05:39:53;99877.82;;;8.84;87.18
25944;BME280;13742;49.306;8.636;2023-03-25T05:40:53;99876.69;;;8.80;87.50
25944;BME280;13742;49.306;8.636;2023-03-25T05:41:54;99884.39;;;8.81;87.52
25944;BME280;13742;49.306;8.636;2023-03-25T05:42:53;99880.61;;;8.79;87.87
25944;BME280;13742;49.306;8.636;2023-03-25T05:43:53;99880.58;;;8.80;88.20
25944;BME280;13742;49.306;8.636;2023-03-25T05:44:53;99875.22;;;8.78;88.44
25944;BME280;13742;49.306;8.636;2023-03-25T05:45:53;99871.51;;;8.79;88.75
25944;BME280;13742;49.306;8.636;2023-03-25T05:46:53;99875.95;;;8.79;88.67
25944;BME280;13742;49.306;8.636;2023-03-25T05:47:53;99879.38;;;8.76;88.93
25944;BME280;13742;49.306;8.636;2023-03-25T05:48:54;99874.59;;;8.70;89.27
25944;BME280;13742;49.306;8.636;2023-03-25T05:49:53;99878.48;;;8.72;89.31
25944;BME280;13742;49.306;8.636;2023-03-25T05:50:55;99880.33;;;8.69;89.74
25944;BME280;13742;49.306;8.636;2023-03-25T05:51:54;99883.80;;;8.68;89.77
25944;BME280;13742;49.306;8.636;2023-03-25T05:52:54;99888.43;;;8.68;90.18
25944;BME280;13742;49.306;8.636;2023-03-25T05:53:53;99892.41;;;8.69;90.24
25944;BME280;13742;49.306;8.636;2023-03-25T05:54:54;99897.33;;;8.72;90.61
25944;BME280;13742;49.306;8.636;2023-03-25T05:55:53;99894.27;;;8.71;90.53
25944;BME280;13742;49.306;8.636;2023-03-25T05:56:53;99894.69;;;8.74;90.87
25944;BME280;13742;49.306;8.636;2023-03-25T05:57:53;99900.78;;;8.73;90.64
25944;BME280;13742;49.306;8.636;2023-03-25T05:58:53;99900.80;;;8.74;90.79
25944;BME280;13742;49.306;8.636;2023-03-25T05:59:54;99902.91;;;8.75;90.96
25944;BME280;13742;49.306;8.636;2023-03-25T06:00:53;99903.93;;;8.74;91.21
25944;BME280;13742;49.306;8.636;2023-03-25T06:01:53;99902.36;;;8.75;91.15
25944;BME280;13742;49.306;8.636;2023-03-25T06:02:53;99903.57;;;8.75;90.68
25944;BME280;13742;49.306;8.636;2023-03-25T06:03:53;99899.42;;;8.76;90.53
25944;BME280;13742;49.306;8.636;2023-03-25T06:04:53;99895.53;;;8.76;90.40
25944;BME280;13742;49.306;8.636;2023-03-25T06:05:53;99900.92;;;8.77;90.19
25944;BME280;13742;49.306;8.636;2023-03-25T06:06:53;99905.45;;;8.78;90.08